Yreka, CA

11:37 PM PDT on September 19, 2014 (GMT -0700)
Mount Shasta | Change Station
CLOSE
Current Station
Airport
Location: Mount Shasta,
Elevation: 3533 ft
Nearby Weather Stations

Elev 3533 ft 41.32 °N, 122.32 °W | Updated 41 minutes ago

Clear
Clear
59 °F
Feels Like 59 °F
N
4
Wind Variable Wind from NE

Today
High -- | Low -- °F
--% Chance of Precip.
Yesterday
High -- | Low -- °F
Precip. -- in
6:54 AM 7:12 PM
Waning Crescent, 14% visible
Pressure 30.02 in
Visibility 10.0 miles
Clouds Clear
Dew Point 47 °F
Humidity 64%
Rainfall 0.00 in
Snow Depth 0 in , 0 in , 0 in
UV 0 out of 12
Pollen 4.20 out of 12
Air Quality Not available.
Flu Activity Not available.
METAR KMHS 200556Z AUTO 05003KT 10SM CLR 15/08 A3005 RMK AO2 SLP166 T01500083 10267 20144 51015

More Conditions Fewer Conditions

Pressure 30.02 in
Visibility 10.0 miles
Clouds Clear
Dew Point 47 °F
Humidity 64%
Rainfall 0.00 in
Snow Depth 0 in , 0 in , 0 in
UV 0 out of 12
Pollen 4.20 out of 12
Air Quality Not available.
Flu Activity Not available.
METAR KMHS 200556Z AUTO 05003KT 10SM CLR 15/08 A3005 RMK AO2 SLP166 T01500083 10267 20144 51015

More Conditions Fewer Conditions

10-Day Weather Forecast

Almanac

Astronomy

Sep. 19, 2014 Rise Set
Actual Time 6:54 AM PDT 7:12 PM PDT
Civil Twilight 6:27 AM PDT 7:40 PM PDT
Nautical Twilight 5:54 AM PDT 8:13 PM PDT
Astronomical Twilight 5:20 AM PDT 8:46 PM PDT
Moon 2:42 AM PDT (9/19) 4:47 PM PDT (9/19)
Length of Visible Light 13h 13m
Length of Day
12h 17m
Tomorrow will be 2m 47s shorter.
Waning Crescent, 14% of the Moon is Illuminated
Sep 20
Waning Crescent
Sep 24
New
Oct 1
First Quarter
Oct 8
Full
Oct 15
Last Quarter

Community

WunderPhotos

Upload Photos

1,754,779 photos uploaded!

WunderBlogs® & News

Nearby

Snow Depth

Station Depth Elevation
Echo Peak 0 in 7800 ft
Burnside Lake 0 in 8139 ft
Leavitt Meadows 0 in 7200 ft
CSS Lab 3 in 6900 ft
Summit Meadow 0 in 9122 ft

Earthquake Activity

City Distance Mag. Time & Date
No recent earthquake activity has been reported nearby.
Minimum magnitude displayed is 2.5.

Coastal Water Temperatures

Place Temperature
No Stations Reporting

Nearby Weather Stations